sensor_id;sensor_type;location;lat;lon;timestamp;noise_LAeq;noise_LA_min;noise_LA_max;noise_LA01;noise_LA95
71628;Laerm;59477;52.374;9.916;2022-07-01T00:00:17;41.84;36.00;51.48;;
71628;Laerm;59477;52.374;9.916;2022-07-01T00:02:17;39.41;35.01;46.00;;
71628;Laerm;59477;52.374;9.916;2022-07-01T00:04:18;41.14;36.25;47.66;;
71628;Laerm;59477;52.374;9.916;2022-07-01T00:06:18;41.91;35.16;63.26;;
71628;Laerm;59477;52.374;9.916;2022-07-01T00:08:19;40.48;34.19;54.38;;
71628;Laerm;59477;52.374;9.916;2022-07-01T00:10:19;40.58;35.03;50.29;;
71628;Laerm;59477;52.374;9.916;2022-07-01T00:12:20;40.18;32.24;51.30;;
71628;Laerm;59477;52.374;9.916;2022-07-01T00:14:20;38.75;33.09;44.54;;
71628;Laerm;59477;52.374;9.916;2022-07-01T00:16:23;38.59;33.20;52.11;;
71628;Laerm;59477;52.374;9.916;2022-07-01T00:18:23;46.25;36.61;62.62;;
71628;Laerm;59477;52.374;9.916;2022-07-01T00:20:24;40.05;36.07;46.51;;
71628;Laerm;59477;52.374;9.916;2022-07-01T00:22:24;48.96;36.80;58.88;;
71628;Laerm;59477;52.374;9.916;2022-07-01T00:24:28;40.31;36.13;46.22;;
71628;Laerm;59477;52.374;9.916;2022-07-01T00:26:28;39.97;34.71;52.81;;
71628;Laerm;59477;52.374;9.916;2022-07-01T00:28:29;45.71;36.65;60.42;;
71628;Laerm;59477;52.374;9.916;2022-07-01T00:30:29;45.52;37.92;54.26;;
71628;Laerm;59477;52.374;9.916;2022-07-01T00:32:30;42.65;36.38;50.82;;
71628;Laerm;59477;52.374;9.916;2022-07-01T00:34:30;43.40;37.71;59.53;;
71628;Laerm;59477;52.374;9.916;2022-07-01T00:36:31;43.62;36.91;60.60;;
71628;Laerm;59477;52.374;9.916;2022-07-01T00:38:31;44.99;38.14;58.72;;
71628;Laerm;59477;52.374;9.916;2022-07-01T00:40:32;43.47;37.94;59.28;;
71628;Laerm;59477;52.374;9.916;2022-07-01T00:42:33;44.70;37.32;61.24;;
71628;Laerm;59477;52.374;9.916;2022-07-01T00:44:33;42.26;36.67;59.33;;
71628;Laerm;59477;52.374;9.916;2022-07-01T00:46:34;48.48;36.04;67.60;;
71628;Laerm;59477;52.374;9.916;2022-07-01T00:48:34;44.70;37.60;62.01;;
71628;Laerm;59477;52.374;9.916;2022-07-01T00:50:36;39.99;35.68;46.33;;
71628;Laerm;59477;52.374;9.916;2022-07-01T00:52:37;48.48;36.67;66.38;;
71628;Laerm;59477;52.374;9.916;2022-07-01T00:54:38;45.46;37.50;54.22;;
71628;Laerm;59477;52.374;9.916;2022-07-01T00:56:40;47.47;40.62;62.68;;
71628;Laerm;59477;52.374;9.916;2022-07-01T00:58:41;47.35;38.11;63.94;;
71628;Laerm;59477;52.374;9.916;2022-07-01T01:00:41;49.19;37.31;68.42;;
71628;Laerm;59477;52.374;9.916;2022-07-01T01:02:42;39.40;34.58;44.44;;
71628;Laerm;59477;52.374;9.916;2022-07-01T01:04:42;43.02;35.52;63.93;;
71628;Laerm;59477;52.374;9.916;2022-07-01T01:06:43;45.87;37.19;61.02;;
71628;Laerm;59477;52.374;9.916;2022-07-01T01:08:44;43.82;38.73;55.11;;
71628;Laerm;59477;52.374;9.916;2022-07-01T01:10:45;45.08;37.10;61.90;;
71628;Laerm;59477;52.374;9.916;2022-07-01T01:12:46;46.71;37.94;60.86;;
71628;Laerm;59477;52.374;9.916;2022-07-01T01:14:47;46.99;37.57;59.88;;
71628;Laerm;59477;52.374;9.916;2022-07-01T01:16:48;43.34;34.09;52.41;;
71628;Laerm;59477;52.374;9.916;2022-07-01T01:18:49;42.02;38.04;46.92;;
71628;Laerm;59477;52.374;9.916;2022-07-01T01:20:51;40.49;36.75;49.93;;
71628;Laerm;59477;52.374;9.916;2022-07-01T01:22:52;41.78;35.48;48.28;;
71628;Laerm;59477;52.374;9.916;2022-07-01T01:24:52;42.50;35.59;58.83;;
71628;Laerm;59477;52.374;9.916;2022-07-01T01:26:53;38.64;34.65;44.92;;
71628;Laerm;59477;52.374;9.916;2022-07-01T01:28:53;42.75;35.49;50.94;;
71628;Laerm;59477;52.374;9.916;2022-07-01T01:30:54;43.18;37.51;52.33;;
71628;Laerm;59477;52.374;9.916;2022-07-01T01:32:55;47.75;38.60;62.26;;
71628;Laerm;59477;52.374;9.916;2022-07-01T01:34:55;43.66;38.10;49.38;;
71628;Laerm;59477;52.374;9.916;2022-07-01T01:36:56;44.96;40.24;54.99;;
71628;Laerm;59477;52.374;9.916;2022-07-01T01:38:56;42.97;37.03;60.20;;
71628;Laerm;59477;52.374;9.916;2022-07-01T01:41:09;43.79;37.49;55.87;;
71628;Laerm;59477;52.374;9.916;2022-07-01T01:43:10;38.49;33.38;44.81;;
71628;Laerm;59477;52.374;9.916;2022-07-01T01:45:11;42.10;34.85;48.54;;
71628;Laerm;59477;52.374;9.916;2022-07-01T01:47:11;41.01;35.98;54.60;;
71628;Laerm;59477;52.374;9.916;2022-07-01T01:49:12;39.73;34.80;45.77;;
71628;Laerm;59477;52.374;9.916;2022-07-01T01:51:13;45.18;36.26;61.11;;
71628;Laerm;59477;52.374;9.916;2022-07-01T01:53:14;42.59;36.90;61.55;;
71628;Laerm;59477;52.374;9.916;2022-07-01T01:55:15;42.57;37.32;49.38;;
71628;Laerm;59477;52.374;9.916;2022-07-01T01:57:15;42.21;36.00;52.42;;
71628;Laerm;59477;52.374;9.916;2022-07-01T01:59:16;43.73;39.18;63.12;;
71628;Laerm;59477;52.374;9.916;2022-07-01T02:01:17;47.78;38.30;70.35;;
71628;Laerm;59477;52.374;9.916;2022-07-01T02:03:18;44.48;38.11;53.29;;
71628;Laerm;59477;52.374;9.916;2022-07-01T02:05:18;43.60;38.60;55.98;;
71628;Laerm;59477;52.374;9.916;2022-07-01T02:07:19;44.26;37.41;51.72;;
71628;Laerm;59477;52.374;9.916;2022-07-01T02:09:20;44.23;38.24;57.50;;
71628;Laerm;59477;52.374;9.916;2022-07-01T02:11:20;40.81;36.27;55.53;;
71628;Laerm;59477;52.374;9.916;2022-07-01T02:13:21;43.68;37.29;55.18;;
71628;Laerm;59477;52.374;9.916;2022-07-01T02:15:21;44.23;36.78;61.10;;
71628;Laerm;59477;52.374;9.916;2022-07-01T02:17:22;45.64;36.65;64.62;;
71628;Laerm;59477;52.374;9.916;2022-07-01T02:19:23;46.30;36.46;61.29;;
71628;Laerm;59477;52.374;9.916;2022-07-01T02:21:24;47.49;37.59;61.74;;
71628;Laerm;59477;52.374;9.916;2022-07-01T02:23:25;46.65;37.99;63.26;;
71628;Laerm;59477;52.374;9.916;2022-07-01T02:25:25;48.46;40.03;64.51;;
71628;Laerm;59477;52.374;9.916;2022-07-01T02:27:26;48.16;38.39;61.78;;
71628;Laerm;59477;52.374;9.916;2022-07-01T02:29:29;48.72;39.93;61.38;;
71628;Laerm;59477;52.374;9.916;2022-07-01T02:31:30;51.56;41.80;73.02;;
71628;Laerm;59477;52.374;9.916;2022-07-01T02:33:31;49.85;40.14;64.39;;
71628;Laerm;59477;52.374;9.916;2022-07-01T02:35:32;48.16;38.48;64.41;;
71628;Laerm;59477;52.374;9.916;2022-07-01T02:37:34;48.74;39.10;64.37;;
71628;Laerm;59477;52.374;9.916;2022-07-01T02:39:35;47.73;40.57;63.46;;
71628;Laerm;59477;52.374;9.916;2022-07-01T02:41:36;47.95;38.73;61.42;;
71628;Laerm;59477;52.374;9.916;2022-07-01T02:43:56;55.22;40.16;69.08;;
71628;Laerm;59477;52.374;9.916;2022-07-01T02:45:57;56.64;40.75;71.47;;
71628;Laerm;59477;52.374;9.916;2022-07-01T02:47:58;56.27;39.15;70.39;;
71628;Laerm;59477;52.374;9.916;2022-07-01T02:49:59;56.23;39.38;69.89;;
71628;Laerm;59477;52.374;9.916;2022-07-01T02:51:59;56.58;39.57;69.21;;
71628;Laerm;59477;52.374;9.916;2022-07-01T02:54:00;56.33;38.34;71.02;;
71628;Laerm;59477;52.374;9.916;2022-07-01T02:56:00;57.92;38.48;71.63;;
71628;Laerm;59477;52.374;9.916;2022-07-01T02:58:01;51.06;38.40;67.74;;
71628;Laerm;59477;52.374;9.916;2022-07-01T03:00:05;43.57;38.44;50.08;;
71628;Laerm;59477;52.374;9.916;2022-07-01T03:02:06;43.85;38.63;53.81;;
71628;Laerm;59477;52.374;9.916;2022-07-01T03:04:06;41.67;37.90;50.01;;
71628;Laerm;59477;52.374;9.916;2022-07-01T03:06:07;45.15;39.59;58.69;;
71628;Laerm;59477;52.374;9.916;2022-07-01T03:08:07;43.06;37.68;60.46;;
71628;Laerm;59477;52.374;9.916;2022-07-01T03:10:08;44.87;40.22;57.14;;
71628;Laerm;59477;52.374;9.916;2022-07-01T03:12:10;43.15;37.96;54.40;;
71628;Laerm;59477;52.374;9.916;2022-07-01T03:14:25;43.77;37.75;60.50;;
71628;Laerm;59477;52.374;9.916;2022-07-01T03:16:26;48.70;40.91;68.48;;
71628;Laerm;59477;52.374;9.916;2022-07-01T03:18:26;49.16;39.09;63.50;;
71628;Laerm;59477;52.374;9.916;2022-07-01T03:20:27;47.46;38.46;61.25;;
71628;Laerm;59477;52.374;9.916;2022-07-01T03:22:29;45.24;41.00;54.63;;
71628;Laerm;59477;52.374;9.916;2022-07-01T03:24:29;43.92;37.77;55.38;;
71628;Laerm;59477;52.374;9.916;2022-07-01T03:26:30;48.12;37.57;65.70;;
71628;Laerm;59477;52.374;9.916;2022-07-01T03:28:30;50.34;38.24;66.64;;
71628;Laerm;59477;52.374;9.916;2022-07-01T03:30:31;48.58;39.03;66.41;;
71628;Laerm;59477;52.374;9.916;2022-07-01T03:32:32;44.56;39.20;56.47;;
71628;Laerm;59477;52.374;9.916;2022-07-01T03:34:34;42.93;37.82;52.57;;
71628;Laerm;59477;52.374;9.916;2022-07-01T03:36:34;44.96;39.06;50.22;;
71628;Laerm;59477;52.374;9.916;2022-07-01T03:38:36;43.61;39.94;47.68;;
71628;Laerm;59477;52.374;9.916;2022-07-01T03:40:37;44.33;39.34;55.89;;
71628;Laerm;59477;52.374;9.916;2022-07-01T03:42:37;41.94;38.25;48.51;;
71628;Laerm;59477;52.374;9.916;2022-07-01T03:44:40;42.82;39.44;48.28;;
71628;Laerm;59477;52.374;9.916;2022-07-01T03:46:41;43.85;38.69;63.82;;
71628;Laerm;59477;52.374;9.916;2022-07-01T03:48:41;42.92;37.05;59.60;;
71628;Laerm;59477;52.374;9.916;2022-07-01T03:50:42;45.38;38.41;55.81;;
71628;Laerm;59477;52.374;9.916;2022-07-01T03:52:42;42.80;37.06;56.52;;
71628;Laerm;59477;52.374;9.916;2022-07-01T03:54:43;43.04;38.44;53.55;;
71628;Laerm;59477;52.374;9.916;2022-07-01T03:56:43;42.47;38.69;49.19;;
71628;Laerm;59477;52.374;9.916;2022-07-01T03:58:44;43.16;37.36;48.21;;
71628;Laerm;59477;52.374;9.916;2022-07-01T04:00:45;42.35;37.58;48.26;;
71628;Laerm;59477;52.374;9.916;2022-07-01T04:02:47;45.97;39.79;56.34;;
71628;Laerm;59477;52.374;9.916;2022-07-01T04:04:48;43.22;38.15;63.82;;
71628;Laerm;59477;52.374;9.916;2022-07-01T04:06:49;42.13;38.24;55.13;;
71628;Laerm;59477;52.374;9.916;2022-07-01T04:08:50;43.69;37.30;60.71;;
71628;Laerm;59477;52.374;9.916;2022-07-01T04:10:50;45.94;39.59;62.43;;
71628;Laerm;59477;52.374;9.916;2022-07-01T04:12:53;43.26;38.96;54.59;;
71628;Laerm;59477;52.374;9.916;2022-07-01T04:14:54;47.65;42.25;68.50;;
71628;Laerm;59477;52.374;9.916;2022-07-01T04:16:55;47.03;44.40;57.86;;
71628;Laerm;59477;52.374;9.916;2022-07-01T04:18:55;46.92;43.60;62.63;;
71628;Laerm;59477;52.374;9.916;2022-07-01T04:20:56;46.77;43.22;56.86;;
71628;Laerm;59477;52.374;9.916;2022-07-01T04:23:16;51.87;43.72;69.78;;
71628;Laerm;59477;52.374;9.916;2022-07-01T04:25:16;48.36;43.50;60.16;;
71628;Laerm;59477;52.374;9.916;2022-07-01T04:27:17;45.39;41.23;51.02;;
71628;Laerm;59477;52.374;9.916;2022-07-01T04:29:18;44.62;41.21;48.81;;
71628;Laerm;59477;52.374;9.916;2022-07-01T04:31:19;44.44;40.33;52.04;;
71628;Laerm;59477;52.374;9.916;2022-07-01T04:33:20;45.33;40.65;59.58;;
71628;Laerm;59477;52.374;9.916;2022-07-01T04:35:23;44.69;40.09;52.69;;
71628;Laerm;59477;52.374;9.916;2022-07-01T04:37:24;46.32;41.47;54.64;;
71628;Laerm;59477;52.374;9.916;2022-07-01T04:39:25;43.77;39.49;50.86;;
71628;Laerm;59477;52.374;9.916;2022-07-01T04:41:26;45.89;40.27;61.98;;
71628;Laerm;59477;52.374;9.916;2022-07-01T04:43:45;47.13;39.57;62.41;;
71628;Laerm;59477;52.374;9.916;2022-07-01T04:45:45;43.48;39.83;47.20;;
71628;Laerm;59477;52.374;9.916;2022-07-01T04:47:46;44.77;40.95;50.52;;
71628;Laerm;59477;52.374;9.916;2022-07-01T04:49:46;44.34;40.76;52.62;;
71628;Laerm;59477;52.374;9.916;2022-07-01T04:51:47;47.90;40.39;66.21;;
71628;Laerm;59477;52.374;9.916;2022-07-01T04:53:47;46.12;40.90;53.31;;
71628;Laerm;59477;52.374;9.916;2022-07-01T04:55:48;47.98;40.78;63.93;;
71628;Laerm;59477;52.374;9.916;2022-07-01T04:57:55;45.78;41.76;54.27;;
71628;Laerm;59477;52.374;9.916;2022-07-01T04:59:55;45.12;41.34;51.87;;
71628;Laerm;59477;52.374;9.916;2022-07-01T05:01:56;44.75;40.37;53.03;;
71628;Laerm;59477;52.374;9.916;2022-07-01T05:03:58;49.59;39.24;69.56;;
71628;Laerm;59477;52.374;9.916;2022-07-01T05:05:59;53.98;40.43;74.41;;
71628;Laerm;59477;52.374;9.916;2022-07-01T05:08:00;52.82;39.04;68.61;;
71628;Laerm;59477;52.374;9.916;2022-07-01T05:10:00;56.22;39.26;77.40;;
71628;Laerm;59477;52.374;9.916;2022-07-01T05:12:01;46.06;39.39;62.66;;
71628;Laerm;59477;52.374;9.916;2022-07-01T05:14:02;44.66;39.70;53.69;;
71628;Laerm;59477;52.374;9.916;2022-07-01T05:16:02;43.38;39.61;53.03;;
71628;Laerm;59477;52.374;9.916;2022-07-01T05:18:03;43.16;37.89;48.74;;
71628;Laerm;59477;52.374;9.916;2022-07-01T05:20:22;41.62;37.97;51.22;;
71628;Laerm;59477;52.374;9.916;2022-07-01T05:22:42;45.75;38.74;67.32;;
71628;Laerm;59477;52.374;9.916;2022-07-01T05:24:42;43.56;38.76;62.28;;
71628;Laerm;59477;52.374;9.916;2022-07-01T05:26:43;43.58;38.13;56.83;;
71628;Laerm;59477;52.374;9.916;2022-07-01T05:28:44;44.33;39.02;57.82;;
71628;Laerm;59477;52.374;9.916;2022-07-01T05:30:44;47.46;38.18;67.62;;
71628;Laerm;59477;52.374;9.916;2022-07-01T05:32:45;43.62;38.71;59.70;;
71628;Laerm;59477;52.374;9.916;2022-07-01T05:34:45;42.16;37.13;55.72;;
71628;Laerm;59477;52.374;9.916;2022-07-01T05:36:46;44.02;38.66;55.64;;
71628;Laerm;59477;52.374;9.916;2022-07-01T05:38:47;43.82;38.53;56.79;;
71628;Laerm;59477;52.374;9.916;2022-07-01T05:40:47;44.85;38.67;55.53;;
71628;Laerm;59477;52.374;9.916;2022-07-01T05:42:48;48.19;38.24;64.52;;
71628;Laerm;59477;52.374;9.916;2022-07-01T05:44:48;44.19;37.02;59.01;;
71628;Laerm;59477;52.374;9.916;2022-07-01T05:46:49;41.71;36.52;55.84;;
71628;Laerm;59477;52.374;9.916;2022-07-01T05:48:49;46.69;38.39;68.18;;
71628;Laerm;59477;52.374;9.916;2022-07-01T05:50:50;44.07;38.93;58.03;;
71628;Laerm;59477;52.374;9.916;2022-07-01T05:52:50;44.50;36.91;62.28;;
71628;Laerm;59477;52.374;9.916;2022-07-01T05:54:51;41.28;35.79;55.72;;
71628;Laerm;59477;52.374;9.916;2022-07-01T05:56:52;44.53;38.10;55.66;;
71628;Laerm;59477;52.374;9.916;2022-07-01T05:58:53;52.96;38.13;78.23;;
71628;Laerm;59477;52.374;9.916;2022-07-01T06:00:54;42.67;37.62;54.43;;
71628;Laerm;59477;52.374;9.916;2022-07-01T06:02:55;46.36;38.18;60.99;;
71628;Laerm;59477;52.374;9.916;2022-07-01T06:04:55;48.06;39.10;61.28;;
71628;Laerm;59477;52.374;9.916;2022-07-01T06:06:56;45.41;38.49;59.94;;
71628;Laerm;59477;52.374;9.916;2022-07-01T06:08:56;43.57;38.29;61.74;;
71628;Laerm;59477;52.374;9.916;2022-07-01T06:10:57;43.50;38.10;56.95;;
71628;Laerm;59477;52.374;9.916;2022-07-01T06:12:58;45.01;40.66;54.44;;
71628;Laerm;59477;52.374;9.916;2022-07-01T06:14:58;46.42;39.34;72.09;;
71628;Laerm;59477;52.374;9.916;2022-07-01T06:16:59;44.36;39.55;61.42;;
71628;Laerm;59477;52.374;9.916;2022-07-01T06:18:59;46.25;40.51;61.31;;
71628;Laerm;59477;52.374;9.916;2022-07-01T06:21:00;44.37;40.07;62.62;;
71628;Laerm;59477;52.374;9.916;2022-07-01T06:23:01;46.72;39.95;59.60;;
71628;Laerm;59477;52.374;9.916;2022-07-01T06:25:01;44.73;40.23;54.64;;
71628;Laerm;59477;52.374;9.916;2022-07-01T06:27:02;44.89;41.62;51.71;;
71628;Laerm;59477;52.374;9.916;2022-07-01T06:29:04;44.08;38.66;61.07;;
71628;Laerm;59477;52.374;9.916;2022-07-01T06:31:04;43.92;38.66;50.66;;
71628;Laerm;59477;52.374;9.916;2022-07-01T06:33:05;43.87;37.83;53.87;;
71628;Laerm;59477;52.374;9.916;2022-07-01T06:35:06;45.90;39.88;68.98;;
71628;Laerm;59477;52.374;9.916;2022-07-01T06:37:08;45.24;40.54;57.68;;
71628;Laerm;59477;52.374;9.916;2022-07-01T06:39:08;45.30;40.56;58.05;;
71628;Laerm;59477;52.374;9.916;2022-07-01T06:41:09;48.01;41.09;68.27;;
71628;Laerm;59477;52.374;9.916;2022-07-01T06:43:27;44.43;38.67;65.76;;
71628;Laerm;59477;52.374;9.916;2022-07-01T06:45:27;45.67;38.55;64.77;;
71628;Laerm;59477;52.374;9.916;2022-07-01T06:47:28;46.93;38.34;69.08;;
71628;Laerm;59477;52.374;9.916;2022-07-01T06:49:28;43.09;39.10;51.64;;
71628;Laerm;59477;52.374;9.916;2022-07-01T06:51:29;43.36;38.76;54.19;;
71628;Laerm;59477;52.374;9.916;2022-07-01T06:53:30;42.84;37.72;66.59;;
71628;Laerm;59477;52.374;9.916;2022-07-01T06:55:30;52.48;39.01;74.16;;
71628;Laerm;59477;52.374;9.916;2022-07-01T06:57:31;42.63;39.06;49.18;;
71628;Laerm;59477;52.374;9.916;2022-07-01T06:59:32;43.31;38.39;50.29;;
71628;Laerm;59477;52.374;9.916;2022-07-01T07:01:33;43.73;38.36;51.15;;
71628;Laerm;59477;52.374;9.916;2022-07-01T07:03:33;46.85;37.89;63.79;;
71628;Laerm;59477;52.374;9.916;2022-07-01T07:05:34;47.36;39.72;70.94;;
71628;Laerm;59477;52.374;9.916;2022-07-01T07:07:34;46.52;39.60;65.62;;
71628;Laerm;59477;52.374;9.916;2022-07-01T07:09:35;42.75;38.28;49.57;;
71628;Laerm;59477;52.374;9.916;2022-07-01T07:11:36;44.48;40.52;56.87;;
71628;Laerm;59477;52.374;9.916;2022-07-01T07:13:37;44.97;40.81;56.53;;
71628;Laerm;59477;52.374;9.916;2022-07-01T07:15:37;45.20;41.10;57.18;;
71628;Laerm;59477;52.374;9.916;2022-07-01T07:17:41;46.98;41.13;63.82;;
71628;Laerm;59477;52.374;9.916;2022-07-01T07:19:42;44.68;40.92;52.70;;
71628;Laerm;59477;52.374;9.916;2022-07-01T07:21:43;47.06;42.10;64.51;;
71628;Laerm;59477;52.374;9.916;2022-07-01T07:23:43;45.14;41.63;54.73;;
71628;Laerm;59477;52.374;9.916;2022-07-01T07:25:44;45.33;42.04;61.98;;
71628;Laerm;59477;52.374;9.916;2022-07-01T07:27:44;44.18;40.97;53.05;;
71628;Laerm;59477;52.374;9.916;2022-07-01T07:29:46;46.50;40.77;62.56;;
71628;Laerm;59477;52.374;9.916;2022-07-01T07:31:47;43.75;39.47;55.96;;
71628;Laerm;59477;52.374;9.916;2022-07-01T07:33:47;44.66;40.96;52.27;;
71628;Laerm;59477;52.374;9.916;2022-07-01T07:35:48;44.80;40.88;56.39;;
71628;Laerm;59477;52.374;9.916;2022-07-01T07:37:48;44.08;39.41;55.43;;
71628;Laerm;59477;52.374;9.916;2022-07-01T07:39:49;43.83;38.10;60.26;;
71628;Laerm;59477;52.374;9.916;2022-07-01T07:41:49;43.52;38.33;67.64;;
71628;Laerm;59477;52.374;9.916;2022-07-01T07:43:50;45.01;39.31;58.70;;
71628;Laerm;59477;52.374;9.916;2022-07-01T07:45:50;47.20;40.75;64.71;;
71628;Laerm;59477;52.374;9.916;2022-07-01T07:47:51;48.94;40.67;63.46;;
71628;Laerm;59477;52.374;9.916;2022-07-01T07:49:54;45.51;40.16;61.69;;
71628;Laerm;59477;52.374;9.916;2022-07-01T07:51:55;44.55;39.81;58.10;;
71628;Laerm;59477;52.374;9.916;2022-07-01T07:53:56;45.85;40.55;61.42;;
71628;Laerm;59477;52.374;9.916;2022-07-01T07:55:56;47.17;40.27;66.72;;
71628;Laerm;59477;52.374;9.916;2022-07-01T07:57:57;44.24;39.23;61.22;;
71628;Laerm;59477;52.374;9.916;2022-07-01T07:59:57;46.08;38.97;65.84;;
71628;Laerm;59477;52.374;9.916;2022-07-01T08:01:58;46.59;40.99;63.07;;
71628;Laerm;59477;52.374;9.916;2022-07-01T08:03:59;42.21;37.50;52.45;;
71628;Laerm;59477;52.374;9.916;2022-07-01T08:05:59;41.51;37.62;53.18;;
71628;Laerm;59477;52.374;9.916;2022-07-01T08:08:00;43.98;38.72;53.38;;
71628;Laerm;59477;52.374;9.916;2022-07-01T08:10:00;46.39;37.90;62.76;;
71628;Laerm;59477;52.374;9.916;2022-07-01T08:12:01;43.09;36.73;58.72;;
71628;Laerm;59477;52.374;9.916;2022-07-01T08:14:02;45.33;36.16;61.74;;
71628;Laerm;59477;52.374;9.916;2022-07-01T08:16:03;45.43;36.83;61.13;;
71628;Laerm;59477;52.374;9.916;2022-07-01T08:18:04;44.42;37.67;61.99;;
71628;Laerm;59477;52.374;9.916;2022-07-01T08:20:05;43.61;37.15;61.72;;
71628;Laerm;59477;52.374;9.916;2022-07-01T08:22:05;43.96;37.29;58.43;;
71628;Laerm;59477;52.374;9.916;2022-07-01T08:24:06;41.35;37.20;49.96;;
71628;Laerm;59477;52.374;9.916;2022-07-01T08:26:06;44.52;37.76;61.19;;
71628;Laerm;59477;52.374;9.916;2022-07-01T08:28:07;44.08;39.74;56.69;;
71628;Laerm;59477;52.374;9.916;2022-07-01T08:30:08;44.62;39.18;58.35;;
71628;Laerm;59477;52.374;9.916;2022-07-01T08:32:09;46.43;39.79;60.71;;
71628;Laerm;59477;52.374;9.916;2022-07-01T08:34:09;43.33;37.16;62.29;;
71628;Laerm;59477;52.374;9.916;2022-07-01T08:36:10;49.29;37.11;76.53;;
71628;Laerm;59477;52.374;9.916;2022-07-01T08:38:10;44.53;38.33;61.75;;
71628;Laerm;59477;52.374;9.916;2022-07-01T08:40:11;43.79;37.46;62.76;;
71628;Laerm;59477;52.374;9.916;2022-07-01T08:42:11;44.26;38.02;57.68;;
71628;Laerm;59477;52.374;9.916;2022-07-01T08:44:12;41.24;37.48;47.93;;
71628;Laerm;59477;52.374;9.916;2022-07-01T08:46:12;43.30;38.05;63.00;;
71628;Laerm;59477;52.374;9.916;2022-07-01T08:48:13;42.64;39.16;54.24;;
71628;Laerm;59477;52.374;9.916;2022-07-01T08:50:13;44.31;37.51;58.84;;
71628;Laerm;59477;52.374;9.916;2022-07-01T08:52:14;45.39;39.07;57.68;;
71628;Laerm;59477;52.374;9.916;2022-07-01T08:54:18;51.01;37.62;68.25;;
71628;Laerm;59477;52.374;9.916;2022-07-01T08:56:24;43.23;37.28;58.12;;
71628;Laerm;59477;52.374;9.916;2022-07-01T08:58:43;41.24;36.56;58.10;;
71628;Laerm;59477;52.374;9.916;2022-07-01T09:00:45;40.13;35.94;56.47;;
71628;Laerm;59477;52.374;9.916;2022-07-01T09:05:05;42.71;36.56;57.82;;
71628;Laerm;59477;52.374;9.916;2022-07-01T09:07:07;42.68;37.40;61.41;;
71628;Laerm;59477;52.374;9.916;2022-07-01T09:11:19;49.17;36.36;74.70;;
71628;Laerm;59477;52.374;9.916;2022-07-01T09:13:20;39.65;35.74;50.24;;
71628;Laerm;59477;52.374;9.916;2022-07-01T09:15:27;43.66;36.72;61.48;;
71628;Laerm;59477;52.374;9.916;2022-07-01T09:17:29;44.37;37.92;60.50;;
71628;Laerm;59477;52.374;9.916;2022-07-01T09:19:32;41.28;36.79;52.43;;
71628;Laerm;59477;52.374;9.916;2022-07-01T09:21:32;43.04;37.47;56.50;;
71628;Laerm;59477;52.374;9.916;2022-07-01T09:23:33;43.95;35.70;64.17;;
71628;Laerm;59477;52.374;9.916;2022-07-01T09:25:37;41.50;36.11;52.25;;
71628;Laerm;59477;52.374;9.916;2022-07-01T09:27:38;42.85;38.10;52.61;;
71628;Laerm;59477;52.374;9.916;2022-07-01T09:30:11;42.28;37.39;49.43;;
71628;Laerm;59477;52.374;9.916;2022-07-01T09:32:09;41.39;37.02;49.04;;
71628;Laerm;59477;52.374;9.916;2022-07-01T09:34:10;43.00;37.17;48.55;;
71628;Laerm;59477;52.374;9.916;2022-07-01T09:36:14;42.93;38.36;46.96;;
71628;Laerm;59477;52.374;9.916;2022-07-01T09:38:16;42.34;38.82;49.17;;
71628;Laerm;59477;52.374;9.916;2022-07-01T09:40:17;44.29;37.85;60.83;;
71628;Laerm;59477;52.374;9.916;2022-07-01T09:42:19;50.91;38.41;64.65;;
71628;Laerm;59477;52.374;9.916;2022-07-01T09:44:20;50.15;40.53;62.94;;
71628;Laerm;59477;52.374;9.916;2022-07-01T09:46:20;44.37;38.12;54.16;;
71628;Laerm;59477;52.374;9.916;2022-07-01T09:48:22;43.53;39.48;49.28;;
71628;Laerm;59477;52.374;9.916;2022-07-01T09:50:23;42.30;37.49;50.18;;
71628;Laerm;59477;52.374;9.916;2022-07-01T09:52:23;41.91;37.79;48.15;;
71628;Laerm;59477;52.374;9.916;2022-07-01T09:54:24;42.39;38.04;49.99;;
71628;Laerm;59477;52.374;9.916;2022-07-01T09:56:25;42.66;38.98;54.51;;
71628;Laerm;59477;52.374;9.916;2022-07-01T09:58:25;44.63;39.50;56.00;;
71628;Laerm;59477;52.374;9.916;2022-07-01T10:00:26;48.12;37.73;68.41;;
71628;Laerm;59477;52.374;9.916;2022-07-01T10:02:27;44.11;36.75;64.97;;
71628;Laerm;59477;52.374;9.916;2022-07-01T10:04:31;44.01;37.47;60.21;;
71628;Laerm;59477;52.374;9.916;2022-07-01T10:08:56;49.58;36.02;70.40;;
71628;Laerm;59477;52.374;9.916;2022-07-01T10:13:03;43.12;37.28;57.82;;
71628;Laerm;59477;52.374;9.916;2022-07-01T10:15:05;48.61;38.94;61.19;;
71628;Laerm;59477;52.374;9.916;2022-07-01T10:17:07;43.35;38.68;55.85;;
71628;Laerm;59477;52.374;9.916;2022-07-01T10:21:27;42.30;36.48;59.31;;
71628;Laerm;59477;52.374;9.916;2022-07-01T10:23:28;41.65;36.54;54.15;;
71628;Laerm;59477;52.374;9.916;2022-07-01T10:25:33;43.61;35.67;61.98;;
71628;Laerm;59477;52.374;9.916;2022-07-01T10:27:34;41.90;35.71;58.33;;
71628;Laerm;59477;52.374;9.916;2022-07-01T10:29:36;42.02;36.41;58.58;;
71628;Laerm;59477;52.374;9.916;2022-07-01T10:31:37;41.05;37.10;49.15;;
71628;Laerm;59477;52.374;9.916;2022-07-01T10:35:54;43.76;36.09;58.09;;
71628;Laerm;59477;52.374;9.916;2022-07-01T10:38:00;40.72;36.88;55.37;;
71628;Laerm;59477;52.374;9.916;2022-07-01T10:40:02;41.62;36.97;55.24;;
71628;Laerm;59477;52.374;9.916;2022-07-01T10:42:03;43.92;35.34;61.32;;
71628;Laerm;59477;52.374;9.916;2022-07-01T10:44:10;44.51;35.20;62.23;;
71628;Laerm;59477;52.374;9.916;2022-07-01T10:46:10;45.33;34.70;61.39;;
71628;Laerm;59477;52.374;9.916;2022-07-01T10:48:31;43.99;35.81;62.04;;
71628;Laerm;59477;52.374;9.916;2022-07-01T10:50:37;45.35;34.16;67.37;;
71628;Laerm;59477;52.374;9.916;2022-07-01T10:52:38;42.72;36.53;58.69;;
71628;Laerm;59477;52.374;9.916;2022-07-01T10:56:45;45.58;36.07;60.69;;
71628;Laerm;59477;52.374;9.916;2022-07-01T10:58:46;47.06;36.13;63.71;;
71628;Laerm;59477;52.374;9.916;2022-07-01T11:00:48;46.94;37.26;63.41;;
71628;Laerm;59477;52.374;9.916;2022-07-01T11:02:50;46.32;35.59;64.24;;
71628;Laerm;59477;52.374;9.916;2022-07-01T11:04:52;45.03;35.12;60.55;;
71628;Laerm;59477;52.374;9.916;2022-07-01T11:06:52;47.29;36.10;65.34;;
71628;Laerm;59477;52.374;9.916;2022-07-01T11:08:53;45.79;35.81;67.15;;
71628;Laerm;59477;52.374;9.916;2022-07-01T11:10:55;39.38;35.08;54.62;;
71628;Laerm;59477;52.374;9.916;2022-07-01T11:12:57;43.33;35.23;65.40;;
71628;Laerm;59477;52.374;9.916;2022-07-01T11:14:59;39.24;33.71;54.33;;
71628;Laerm;59477;52.374;9.916;2022-07-01T11:17:02;39.63;34.35;50.36;;
71628;Laerm;59477;52.374;9.916;2022-07-01T11:19:05;50.06;34.54;72.18;;
71628;Laerm;59477;52.374;9.916;2022-07-01T11:21:08;53.24;35.08;72.14;;
71628;Laerm;59477;52.374;9.916;2022-07-01T11:23:09;55.71;34.48;78.18;;
71628;Laerm;59477;52.374;9.916;2022-07-01T11:25:11;44.27;35.22;60.79;;
71628;Laerm;59477;52.374;9.916;2022-07-01T11:27:13;49.62;34.92;67.50;;
71628;Laerm;59477;52.374;9.916;2022-07-01T11:29:14;45.70;34.47;61.55;;
71628;Laerm;59477;52.374;9.916;2022-07-01T11:31:25;45.64;34.66;63.85;;
71628;Laerm;59477;52.374;9.916;2022-07-01T11:33:26;42.28;33.39;56.66;;
71628;Laerm;59477;52.374;9.916;2022-07-01T11:35:30;44.28;32.90;64.59;;